sensor_id;sensor_type;location;lat;lon;timestamp;P1;durP1;ratioP1;P2;durP2;ratioP2
55146;SDS011;41039;49.830;23.988;2023-03-02T00:01:50;57.67;;;27.95;;
55146;SDS011;41039;49.830;23.988;2023-03-02T00:04:18;47.85;;;24.52;;
55146;SDS011;41039;49.830;23.988;2023-03-02T00:06:44;48.55;;;25.88;;
55146;SDS011;41039;49.830;23.988;2023-03-02T00:09:10;51.83;;;25.38;;
55146;SDS011;41039;49.830;23.988;2023-03-02T00:11:36;52.30;;;25.02;;
55146;SDS011;41039;49.830;23.988;2023-03-02T00:14:02;52.45;;;26.83;;
55146;SDS011;41039;49.830;23.988;2023-03-02T00:16:27;53.20;;;26.35;;
55146;SDS011;41039;49.830;23.988;2023-03-02T00:18:52;43.05;;;23.17;;
55146;SDS011;41039;49.830;23.988;2023-03-02T00:21:18;44.85;;;22.27;;
55146;SDS011;41039;49.830;23.988;2023-03-02T00:23:43;40.00;;;21.98;;
55146;SDS011;41039;49.830;23.988;2023-03-02T00:26:08;47.85;;;24.25;;
55146;SDS011;41039;49.830;23.988;2023-03-02T00:28:34;50.25;;;25.20;;
55146;SDS011;41039;49.830;23.988;2023-03-02T00:30:59;43.70;;;22.95;;
55146;SDS011;41039;49.830;23.988;2023-03-02T00:33:27;52.35;;;24.23;;
55146;SDS011;41039;49.830;23.988;2023-03-02T00:35:52;46.25;;;24.55;;
55146;SDS011;41039;49.830;23.988;2023-03-02T00:38:17;51.90;;;25.65;;
55146;SDS011;41039;49.830;23.988;2023-03-02T00:40:46;50.13;;;25.88;;
55146;SDS011;41039;49.830;23.988;2023-03-02T00:43:13;52.45;;;25.63;;
55146;SDS011;41039;49.830;23.988;2023-03-02T00:45:38;49.72;;;26.33;;
55146;SDS011;41039;49.830;23.988;2023-03-02T00:48:03;47.60;;;27.23;;
55146;SDS011;41039;49.830;23.988;2023-03-02T00:50:29;52.65;;;26.95;;
55146;SDS011;41039;49.830;23.988;2023-03-02T00:52:54;48.72;;;26.70;;
55146;SDS011;41039;49.830;23.988;2023-03-02T00:55:19;60.28;;;29.92;;
55146;SDS011;41039;49.830;23.988;2023-03-02T00:57:45;58.47;;;27.83;;
55146;SDS011;41039;49.830;23.988;2023-03-02T01:00:19;51.83;;;27.35;;
55146;SDS011;41039;49.830;23.988;2023-03-02T01:02:44;53.22;;;28.05;;
55146;SDS011;41039;49.830;23.988;2023-03-02T01:05:09;52.65;;;25.85;;
55146;SDS011;41039;49.830;23.988;2023-03-02T01:07:34;51.97;;;27.02;;
55146;SDS011;41039;49.830;23.988;2023-03-02T01:10:00;48.63;;;25.95;;
55146;SDS011;41039;49.830;23.988;2023-03-02T01:12:25;52.20;;;26.48;;
55146;SDS011;41039;49.830;23.988;2023-03-02T01:14:50;46.10;;;25.83;;
55146;SDS011;41039;49.830;23.988;2023-03-02T01:17:15;47.08;;;23.77;;
55146;SDS011;41039;49.830;23.988;2023-03-02T01:19:41;52.25;;;24.85;;
55146;SDS011;41039;49.830;23.988;2023-03-02T01:22:06;56.60;;;27.40;;
55146;SDS011;41039;49.830;23.988;2023-03-02T01:24:32;49.13;;;24.73;;
55146;SDS011;41039;49.830;23.988;2023-03-02T01:26:58;58.40;;;26.90;;
55146;SDS011;41039;49.830;23.988;2023-03-02T01:29:23;50.15;;;24.35;;
55146;SDS011;41039;49.830;23.988;2023-03-02T01:31:48;50.08;;;25.25;;
55146;SDS011;41039;49.830;23.988;2023-03-02T01:34:14;57.42;;;25.75;;
55146;SDS011;41039;49.830;23.988;2023-03-02T01:36:39;51.50;;;25.70;;
55146;SDS011;41039;49.830;23.988;2023-03-02T01:39:04;53.70;;;26.27;;
55146;SDS011;41039;49.830;23.988;2023-03-02T01:41:29;56.05;;;29.08;;
55146;SDS011;41039;49.830;23.988;2023-03-02T01:43:55;54.80;;;26.60;;
55146;SDS011;41039;49.830;23.988;2023-03-02T01:48:47;60.00;;;28.05;;
55146;SDS011;41039;49.830;23.988;2023-03-02T01:51:14;60.28;;;27.52;;
55146;SDS011;41039;49.830;23.988;2023-03-02T01:53:41;60.17;;;27.77;;
55146;SDS011;41039;49.830;23.988;2023-03-02T01:56:10;56.60;;;27.60;;
55146;SDS011;41039;49.830;23.988;2023-03-02T01:58:37;53.30;;;27.75;;
55146;SDS011;41039;49.830;23.988;2023-03-02T02:01:02;55.40;;;27.88;;
55146;SDS011;41039;49.830;23.988;2023-03-02T02:03:28;61.05;;;28.83;;
55146;SDS011;41039;49.830;23.988;2023-03-02T02:05:57;57.72;;;28.33;;
55146;SDS011;41039;49.830;23.988;2023-03-02T02:08:24;60.67;;;28.40;;
55146;SDS011;41039;49.830;23.988;2023-03-02T02:10:50;60.30;;;28.75;;
55146;SDS011;41039;49.830;23.988;2023-03-02T02:13:15;55.85;;;26.92;;
55146;SDS011;41039;49.830;23.988;2023-03-02T02:15:40;52.88;;;27.33;;
55146;SDS011;41039;49.830;23.988;2023-03-02T02:18:05;53.42;;;26.50;;
55146;SDS011;41039;49.830;23.988;2023-03-02T02:20:41;59.17;;;28.73;;
55146;SDS011;41039;49.830;23.988;2023-03-02T02:28:22;60.53;;;28.70;;
55146;SDS011;41039;49.830;23.988;2023-03-02T02:30:49;57.97;;;29.50;;
55146;SDS011;41039;49.830;23.988;2023-03-02T02:33:17;57.72;;;28.25;;
55146;SDS011;41039;49.830;23.988;2023-03-02T02:35:44;63.30;;;30.10;;
55146;SDS011;41039;49.830;23.988;2023-03-02T02:38:10;60.13;;;28.52;;
55146;SDS011;41039;49.830;23.988;2023-03-02T02:43:04;60.33;;;30.92;;
55146;SDS011;41039;49.830;23.988;2023-03-02T02:45:30;54.50;;;27.63;;
55146;SDS011;41039;49.830;23.988;2023-03-02T02:47:56;57.97;;;28.40;;
55146;SDS011;41039;49.830;23.988;2023-03-02T02:50:23;56.83;;;29.52;;
55146;SDS011;41039;49.830;23.988;2023-03-02T02:52:50;54.58;;;27.50;;
55146;SDS011;41039;49.830;23.988;2023-03-02T02:55:19;55.17;;;27.65;;
55146;SDS011;41039;49.830;23.988;2023-03-02T02:57:45;51.08;;;27.63;;
55146;SDS011;41039;49.830;23.988;2023-03-02T03:00:14;56.30;;;27.33;;
55146;SDS011;41039;49.830;23.988;2023-03-02T03:02:42;53.40;;;25.80;;
55146;SDS011;41039;49.830;23.988;2023-03-02T03:05:12;50.35;;;25.02;;
55146;SDS011;41039;49.830;23.988;2023-03-02T03:07:38;51.67;;;25.85;;
55146;SDS011;41039;49.830;23.988;2023-03-02T03:12:28;50.70;;;24.83;;
55146;SDS011;41039;49.830;23.988;2023-03-02T03:14:55;60.67;;;26.92;;
55146;SDS011;41039;49.830;23.988;2023-03-02T03:17:21;50.53;;;25.38;;
55146;SDS011;41039;49.830;23.988;2023-03-02T03:19:46;49.33;;;24.80;;
55146;SDS011;41039;49.830;23.988;2023-03-02T03:22:12;47.30;;;23.55;;
55146;SDS011;41039;49.830;23.988;2023-03-02T03:24:38;46.55;;;24.67;;
55146;SDS011;41039;49.830;23.988;2023-03-02T03:27:05;53.67;;;24.35;;
55146;SDS011;41039;49.830;23.988;2023-03-02T03:29:30;53.63;;;23.50;;
55146;SDS011;41039;49.830;23.988;2023-03-02T03:31:56;49.85;;;26.42;;
55146;SDS011;41039;49.830;23.988;2023-03-02T03:34:22;52.63;;;25.55;;
55146;SDS011;41039;49.830;23.988;2023-03-02T03:36:48;60.58;;;27.80;;
55146;SDS011;41039;49.830;23.988;2023-03-02T03:39:14;55.53;;;26.90;;
55146;SDS011;41039;49.830;23.988;2023-03-02T03:41:39;56.45;;;27.38;;
55146;SDS011;41039;49.830;23.988;2023-03-02T03:44:05;56.25;;;29.02;;
55146;SDS011;41039;49.830;23.988;2023-03-02T03:46:30;62.78;;;28.05;;
55146;SDS011;41039;49.830;23.988;2023-03-02T03:48:56;53.03;;;27.00;;
55146;SDS011;41039;49.830;23.988;2023-03-02T03:51:21;58.35;;;28.55;;
55146;SDS011;41039;49.830;23.988;2023-03-02T03:53:47;63.22;;;30.83;;
55146;SDS011;41039;49.830;23.988;2023-03-02T03:56:23;64.05;;;31.02;;
55146;SDS011;41039;49.830;23.988;2023-03-02T03:58:49;61.35;;;32.20;;
55146;SDS011;41039;49.830;23.988;2023-03-02T04:01:17;61.15;;;31.95;;
55146;SDS011;41039;49.830;23.988;2023-03-02T04:03:43;71.93;;;35.83;;
55146;SDS011;41039;49.830;23.988;2023-03-02T04:06:08;67.93;;;33.00;;
55146;SDS011;41039;49.830;23.988;2023-03-02T04:08:43;61.95;;;32.17;;
55146;SDS011;41039;49.830;23.988;2023-03-02T04:11:08;61.80;;;31.08;;
55146;SDS011;41039;49.830;23.988;2023-03-02T04:13:33;60.90;;;34.33;;
55146;SDS011;41039;49.830;23.988;2023-03-02T04:15:58;66.20;;;33.45;;
55146;SDS011;41039;49.830;23.988;2023-03-02T04:18:24;59.95;;;30.50;;
55146;SDS011;41039;49.830;23.988;2023-03-02T04:20:49;55.60;;;30.13;;
55146;SDS011;41039;49.830;23.988;2023-03-02T04:23:14;63.72;;;33.35;;
55146;SDS011;41039;49.830;23.988;2023-03-02T04:25:39;61.90;;;31.15;;
55146;SDS011;41039;49.830;23.988;2023-03-02T04:28:04;60.88;;;29.23;;
55146;SDS011;41039;49.830;23.988;2023-03-02T04:30:30;63.30;;;30.85;;
55146;SDS011;41039;49.830;23.988;2023-03-02T04:32:57;66.90;;;35.60;;
55146;SDS011;41039;49.830;23.988;2023-03-02T04:35:22;61.92;;;30.80;;
55146;SDS011;41039;49.830;23.988;2023-03-02T04:37:49;63.05;;;31.52;;
55146;SDS011;41039;49.830;23.988;2023-03-02T04:40:14;65.60;;;34.55;;
55146;SDS011;41039;49.830;23.988;2023-03-02T04:42:40;62.38;;;32.22;;
55146;SDS011;41039;49.830;23.988;2023-03-02T04:45:06;58.30;;;28.88;;
55146;SDS011;41039;49.830;23.988;2023-03-02T04:47:31;63.10;;;31.63;;
55146;SDS011;41039;49.830;23.988;2023-03-02T04:49:56;59.38;;;32.05;;
55146;SDS011;41039;49.830;23.988;2023-03-02T04:52:22;57.35;;;30.77;;
55146;SDS011;41039;49.830;23.988;2023-03-02T04:54:47;60.75;;;32.00;;
55146;SDS011;41039;49.830;23.988;2023-03-02T04:57:12;60.50;;;30.45;;
55146;SDS011;41039;49.830;23.988;2023-03-02T04:59:38;67.03;;;30.13;;
55146;SDS011;41039;49.830;23.988;2023-03-02T05:02:03;47.78;;;27.25;;
55146;SDS011;41039;49.830;23.988;2023-03-02T05:04:29;62.47;;;32.35;;
55146;SDS011;41039;49.830;23.988;2023-03-02T05:06:54;58.72;;;27.77;;
55146;SDS011;41039;49.830;23.988;2023-03-02T05:09:20;62.03;;;30.42;;
55146;SDS011;41039;49.830;23.988;2023-03-02T05:11:51;59.75;;;29.73;;
55146;SDS011;41039;49.830;23.988;2023-03-02T05:14:16;53.88;;;27.35;;
55146;SDS011;41039;49.830;23.988;2023-03-02T05:16:41;60.40;;;28.92;;
55146;SDS011;41039;49.830;23.988;2023-03-02T05:19:07;53.00;;;26.40;;
55146;SDS011;41039;49.830;23.988;2023-03-02T05:21:32;54.22;;;26.30;;
55146;SDS011;41039;49.830;23.988;2023-03-02T05:23:58;51.88;;;27.20;;
55146;SDS011;41039;49.830;23.988;2023-03-02T05:26:23;49.97;;;25.65;;
55146;SDS011;41039;49.830;23.988;2023-03-02T05:28:48;52.55;;;30.50;;
55146;SDS011;41039;49.830;23.988;2023-03-02T05:31:18;49.35;;;26.58;;
55146;SDS011;41039;49.830;23.988;2023-03-02T05:33:44;53.80;;;26.95;;
55146;SDS011;41039;49.830;23.988;2023-03-02T05:36:09;52.80;;;28.00;;
55146;SDS011;41039;49.830;23.988;2023-03-02T05:38:35;50.88;;;26.65;;
55146;SDS011;41039;49.830;23.988;2023-03-02T05:41:00;46.00;;;25.77;;
55146;SDS011;41039;49.830;23.988;2023-03-02T05:43:26;51.40;;;25.13;;
55146;SDS011;41039;49.830;23.988;2023-03-02T05:45:51;48.40;;;25.58;;
55146;SDS011;41039;49.830;23.988;2023-03-02T05:48:16;46.70;;;24.25;;
55146;SDS011;41039;49.830;23.988;2023-03-02T05:50:41;46.28;;;24.73;;
55146;SDS011;41039;49.830;23.988;2023-03-02T05:53:07;51.95;;;26.80;;
55146;SDS011;41039;49.830;23.988;2023-03-02T05:55:32;40.25;;;23.33;;
55146;SDS011;41039;49.830;23.988;2023-03-02T05:58:00;49.90;;;26.02;;
55146;SDS011;41039;49.830;23.988;2023-03-02T06:00:26;46.60;;;24.45;;
55146;SDS011;41039;49.830;23.988;2023-03-02T06:02:51;48.42;;;24.83;;
55146;SDS011;41039;49.830;23.988;2023-03-02T06:05:17;46.28;;;24.80;;
55146;SDS011;41039;49.830;23.988;2023-03-02T06:07:42;46.17;;;23.90;;
55146;SDS011;41039;49.830;23.988;2023-03-02T06:10:09;45.17;;;23.73;;
55146;SDS011;41039;49.830;23.988;2023-03-02T06:12:35;42.17;;;23.58;;
55146;SDS011;41039;49.830;23.988;2023-03-02T06:15:00;53.60;;;26.75;;
55146;SDS011;41039;49.830;23.988;2023-03-02T06:17:25;46.65;;;26.13;;
55146;SDS011;41039;49.830;23.988;2023-03-02T06:19:51;45.15;;;24.65;;
55146;SDS011;41039;49.830;23.988;2023-03-02T06:22:16;44.28;;;24.92;;
55146;SDS011;41039;49.830;23.988;2023-03-02T06:24:41;47.13;;;24.15;;
55146;SDS011;41039;49.830;23.988;2023-03-02T06:27:06;47.75;;;25.23;;
55146;SDS011;41039;49.830;23.988;2023-03-02T06:29:32;46.03;;;25.00;;
55146;SDS011;41039;49.830;23.988;2023-03-02T06:31:57;48.60;;;25.25;;
55146;SDS011;41039;49.830;23.988;2023-03-02T06:34:22;49.58;;;26.25;;
55146;SDS011;41039;49.830;23.988;2023-03-02T06:36:47;48.28;;;24.60;;
55146;SDS011;41039;49.830;23.988;2023-03-02T06:39:12;48.10;;;25.63;;
55146;SDS011;41039;49.830;23.988;2023-03-02T06:41:44;54.20;;;26.27;;
55146;SDS011;41039;49.830;23.988;2023-03-02T06:44:10;53.38;;;27.75;;
55146;SDS011;41039;49.830;23.988;2023-03-02T06:46:35;57.00;;;30.63;;
55146;SDS011;41039;49.830;23.988;2023-03-02T06:49:00;58.53;;;32.42;;
55146;SDS011;41039;49.830;23.988;2023-03-02T06:51:26;55.45;;;32.85;;
55146;SDS011;41039;49.830;23.988;2023-03-02T06:53:51;64.78;;;34.65;;
55146;SDS011;41039;49.830;23.988;2023-03-02T06:56:16;51.28;;;31.73;;
55146;SDS011;41039;49.830;23.988;2023-03-02T06:58:41;53.13;;;32.38;;
55146;SDS011;41039;49.830;23.988;2023-03-02T07:01:07;53.65;;;33.15;;
55146;SDS011;41039;49.830;23.988;2023-03-02T07:03:32;55.92;;;34.65;;
55146;SDS011;41039;49.830;23.988;2023-03-02T07:05:57;55.33;;;34.67;;
55146;SDS011;41039;49.830;23.988;2023-03-02T07:08:23;52.17;;;34.95;;
55146;SDS011;41039;49.830;23.988;2023-03-02T07:10:48;50.08;;;33.97;;
55146;SDS011;41039;49.830;23.988;2023-03-02T07:13:13;44.95;;;32.38;;
55146;SDS011;41039;49.830;23.988;2023-03-02T07:15:39;43.42;;;31.60;;
55146;SDS011;41039;49.830;23.988;2023-03-02T07:18:04;42.22;;;30.55;;
55146;SDS011;41039;49.830;23.988;2023-03-02T07:20:29;40.85;;;29.30;;
55146;SDS011;41039;49.830;23.988;2023-03-02T07:22:55;45.75;;;32.47;;
55146;SDS011;41039;49.830;23.988;2023-03-02T07:25:20;38.53;;;30.20;;
55146;SDS011;41039;49.830;23.988;2023-03-02T07:27:46;39.25;;;27.15;;
55146;SDS011;41039;49.830;23.988;2023-03-02T07:30:11;40.13;;;28.65;;
55146;SDS011;41039;49.830;23.988;2023-03-02T07:32:38;39.33;;;26.75;;
55146;SDS011;41039;49.830;23.988;2023-03-02T07:35:04;38.10;;;28.30;;
55146;SDS011;41039;49.830;23.988;2023-03-02T07:37:29;35.63;;;26.40;;
55146;SDS011;41039;49.830;23.988;2023-03-02T07:39:54;38.95;;;28.70;;
55146;SDS011;41039;49.830;23.988;2023-03-02T07:42:19;35.30;;;25.67;;
55146;SDS011;41039;49.830;23.988;2023-03-02T07:44:45;36.38;;;28.23;;
55146;SDS011;41039;49.830;23.988;2023-03-02T07:47:10;32.47;;;25.85;;
55146;SDS011;41039;49.830;23.988;2023-03-02T07:49:35;32.17;;;24.73;;
55146;SDS011;41039;49.830;23.988;2023-03-02T07:52:01;33.20;;;25.98;;
55146;SDS011;41039;49.830;23.988;2023-03-02T07:54:26;36.33;;;25.45;;
55146;SDS011;41039;49.830;23.988;2023-03-02T07:56:54;36.78;;;26.48;;
55146;SDS011;41039;49.830;23.988;2023-03-02T07:59:19;34.13;;;25.48;;
55146;SDS011;41039;49.830;23.988;2023-03-02T08:01:45;31.55;;;24.65;;
55146;SDS011;41039;49.830;23.988;2023-03-02T08:04:10;30.57;;;25.57;;
55146;SDS011;41039;49.830;23.988;2023-03-02T08:06:35;42.50;;;26.53;;
55146;SDS011;41039;49.830;23.988;2023-03-02T08:09:01;36.53;;;25.77;;
55146;SDS011;41039;49.830;23.988;2023-03-02T08:11:26;33.15;;;25.02;;
55146;SDS011;41039;49.830;23.988;2023-03-02T08:13:51;34.53;;;23.25;;
55146;SDS011;41039;49.830;23.988;2023-03-02T08:16:17;34.75;;;23.63;;
55146;SDS011;41039;49.830;23.988;2023-03-02T08:18:42;36.90;;;21.93;;
55146;SDS011;41039;49.830;23.988;2023-03-02T08:21:14;35.78;;;25.08;;
55146;SDS011;41039;49.830;23.988;2023-03-02T08:23:40;31.65;;;20.50;;
55146;SDS011;41039;49.830;23.988;2023-03-02T08:26:05;27.95;;;20.02;;
55146;SDS011;41039;49.830;23.988;2023-03-02T08:28:30;33.67;;;24.08;;
55146;SDS011;41039;49.830;23.988;2023-03-02T08:30:59;54.67;;;25.00;;
55146;SDS011;41039;49.830;23.988;2023-03-02T08:33:25;37.17;;;21.83;;
55146;SDS011;41039;49.830;23.988;2023-03-02T08:35:58;31.15;;;21.75;;
55146;SDS011;41039;49.830;23.988;2023-03-02T08:38:24;43.50;;;20.05;;
55146;SDS011;41039;49.830;23.988;2023-03-02T08:40:50;47.05;;;21.15;;
55146;SDS011;41039;49.830;23.988;2023-03-02T08:43:15;29.83;;;19.80;;
55146;SDS011;41039;49.830;23.988;2023-03-02T08:45:40;44.83;;;19.85;;
55146;SDS011;41039;49.830;23.988;2023-03-02T08:48:06;43.97;;;20.63;;
55146;SDS011;41039;49.830;23.988;2023-03-02T08:50:31;29.67;;;19.42;;
55146;SDS011;41039;49.830;23.988;2023-03-02T08:52:56;34.60;;;20.45;;
55146;SDS011;41039;49.830;23.988;2023-03-02T08:55:21;27.08;;;18.73;;
55146;SDS011;41039;49.830;23.988;2023-03-02T08:57:47;32.38;;;20.52;;
55146;SDS011;41039;49.830;23.988;2023-03-02T09:00:13;30.27;;;20.48;;
55146;SDS011;41039;49.830;23.988;2023-03-02T09:02:39;29.08;;;18.95;;
55146;SDS011;41039;49.830;23.988;2023-03-02T09:05:04;31.13;;;20.25;;
55146;SDS011;41039;49.830;23.988;2023-03-02T09:07:29;30.88;;;19.73;;
55146;SDS011;41039;49.830;23.988;2023-03-02T09:09:55;25.83;;;17.88;;
55146;SDS011;41039;49.830;23.988;2023-03-02T09:12:20;36.47;;;20.67;;
55146;SDS011;41039;49.830;23.988;2023-03-02T09:14:45;34.40;;;20.50;;
55146;SDS011;41039;49.830;23.988;2023-03-02T09:17:10;33.85;;;22.20;;
55146;SDS011;41039;49.830;23.988;2023-03-02T09:19:39;38.70;;;23.05;;
55146;SDS011;41039;49.830;23.988;2023-03-02T09:22:06;28.80;;;20.13;;
55146;SDS011;41039;49.830;23.988;2023-03-02T09:24:31;34.15;;;20.73;;
55146;SDS011;41039;49.830;23.988;2023-03-02T09:26:57;32.38;;;19.80;;
55146;SDS011;41039;49.830;23.988;2023-03-02T09:29:22;38.70;;;20.20;;
55146;SDS011;41039;49.830;23.988;2023-03-02T09:31:47;29.15;;;20.02;;
55146;SDS011;41039;49.830;23.988;2023-03-02T09:34:12;19.75;;;14.68;;
55146;SDS011;41039;49.830;23.988;2023-03-02T09:36:38;24.67;;;16.25;;
55146;SDS011;41039;49.830;23.988;2023-03-02T09:39:03;24.38;;;16.67;;
55146;SDS011;41039;49.830;23.988;2023-03-02T09:41:37;29.75;;;18.50;;
55146;SDS011;41039;49.830;23.988;2023-03-02T09:47:03;22.45;;;15.13;;
55146;SDS011;41039;49.830;23.988;2023-03-02T09:52:01;23.93;;;14.90;;
55146;SDS011;41039;49.830;23.988;2023-03-02T09:54:29;24.15;;;14.73;;
55146;SDS011;41039;49.830;23.988;2023-03-02T09:56:55;25.85;;;15.40;;
55146;SDS011;41039;49.830;23.988;2023-03-02T09:59:25;25.13;;;16.35;;
55146;SDS011;41039;49.830;23.988;2023-03-02T10:02:16;22.63;;;14.60;;
55146;SDS011;41039;49.830;23.988;2023-03-02T10:04:48;21.88;;;13.50;;
55146;SDS011;41039;49.830;23.988;2023-03-02T10:07:37;20.02;;;12.10;;
55146;SDS011;41039;49.830;23.988;2023-03-02T10:10:06;22.60;;;14.05;;
55146;SDS011;41039;49.830;23.988;2023-03-02T10:12:57;26.67;;;14.55;;
55146;SDS011;41039;49.830;23.988;2023-03-02T10:15:28;23.55;;;13.55;;
55146;SDS011;41039;49.830;23.988;2023-03-02T10:20:28;23.38;;;14.45;;
55146;SDS011;41039;49.830;23.988;2023-03-02T10:23:36;24.08;;;14.27;;
55146;SDS011;41039;49.830;23.988;2023-03-02T10:25:45;17.40;;;13.60;;
55146;SDS011;41039;49.830;23.988;2023-03-02T10:28:19;19.40;;;13.23;;
55146;SDS011;41039;49.830;23.988;2023-03-02T10:30:45;23.38;;;13.23;;
55146;SDS011;41039;49.830;23.988;2023-03-02T10:33:15;24.88;;;13.98;;
55146;SDS011;41039;49.830;23.988;2023-03-02T10:35:43;28.15;;;13.05;;
55146;SDS011;41039;49.830;23.988;2023-03-02T10:38:16;19.17;;;10.90;;
55146;SDS011;41039;49.830;23.988;2023-03-02T10:43:10;29.23;;;11.40;;
55146;SDS011;41039;49.830;23.988;2023-03-02T10:45:38;23.30;;;11.05;;
55146;SDS011;41039;49.830;23.988;2023-03-02T10:48:04;24.45;;;12.55;;
55146;SDS011;41039;49.830;23.988;2023-03-02T10:50:30;25.55;;;11.95;;
55146;SDS011;41039;49.830;23.988;2023-03-02T10:52:55;24.02;;;12.40;;
55146;SDS011;41039;49.830;23.988;2023-03-02T10:55:21;40.03;;;14.63;;
55146;SDS011;41039;49.830;23.988;2023-03-02T10:57:55;22.13;;;11.25;;
55146;SDS011;41039;49.830;23.988;2023-03-02T11:00:23;15.75;;;9.98;;
55146;SDS011;41039;49.830;23.988;2023-03-02T11:02:49;19.77;;;11.25;;
55146;SDS011;41039;49.830;23.988;2023-03-02T11:07:53;14.65;;;10.35;;
55146;SDS011;41039;49.830;23.988;2023-03-02T11:10:20;16.58;;;11.10;;
55146;SDS011;41039;49.830;23.988;2023-03-02T11:12:46;17.30;;;11.48;;
55146;SDS011;41039;49.830;23.988;2023-03-02T11:15:21;12.65;;;9.70;;
55146;SDS011;41039;49.830;23.988;2023-03-02T11:17:53;15.70;;;11.68;;
55146;SDS011;41039;49.830;23.988;2023-03-02T11:25:16;17.97;;;13.93;;
55146;SDS011;41039;49.830;23.988;2023-03-02T11:27:43;20.50;;;13.27;;
55146;SDS011;41039;49.830;23.988;2023-03-02T11:30:14;19.02;;;12.90;;
55146;SDS011;41039;49.830;23.988;2023-03-02T11:35:31;17.60;;;12.95;;
55146;SDS011;41039;49.830;23.988;2023-03-02T11:38:09;25.30;;;14.80;;
55146;SDS011;41039;49.830;23.988;2023-03-02T11:40:42;29.88;;;14.18;;
55146;SDS011;41039;49.830;23.988;2023-03-02T11:43:08;21.67;;;14.85;;
55146;SDS011;41039;49.830;23.988;2023-03-02T11:45:35;20.90;;;13.25;;
55146;SDS011;41039;49.830;23.988;2023-03-02T11:48:04;24.40;;;13.52;;
55146;SDS011;41039;49.830;23.988;2023-03-02T11:50:31;27.45;;;15.00;;
55146;SDS011;41039;49.830;23.988;2023-03-02T11:52:58;36.75;;;14.95;;
55146;SDS011;41039;49.830;23.988;2023-03-02T11:55:25;29.05;;;14.45;;
55146;SDS011;41039;49.830;23.988;2023-03-02T11:57:55;29.45;;;15.88;;
55146;SDS011;41039;49.830;23.988;2023-03-02T12:03:06;25.63;;;14.18;;
55146;SDS011;41039;49.830;23.988;2023-03-02T12:05:43;32.72;;;16.33;;
55146;SDS011;41039;49.830;23.988;2023-03-02T12:10:54;18.23;;;12.95;;
55146;SDS011;41039;49.830;23.988;2023-03-02T12:13:22;23.17;;;14.30;;
55146;SDS011;41039;49.830;23.988;2023-03-02T12:15:49;22.85;;;13.20;;
55146;SDS011;41039;49.830;23.988;2023-03-02T12:20:45;17.10;;;12.25;;
55146;SDS011;41039;49.830;23.988;2023-03-02T12:23:22;22.15;;;12.85;;
55146;SDS011;41039;49.830;23.988;2023-03-02T12:25:48;16.45;;;11.52;;
55146;SDS011;41039;49.830;23.988;2023-03-02T12:31:03;20.08;;;11.20;;
55146;SDS011;41039;49.830;23.988;2023-03-02T12:33:30;16.73;;;11.57;;
55146;SDS011;41039;49.830;23.988;2023-03-02T12:36:31;20.92;;;12.55;;
55146;SDS011;41039;49.830;23.988;2023-03-02T12:44:26;18.73;;;13.05;;
55146;SDS011;41039;49.830;23.988;2023-03-02T12:46:55;22.25;;;13.40;;
55146;SDS011;41039;49.830;23.988;2023-03-02T12:51:58;18.30;;;12.50;;
55146;SDS011;41039;49.830;23.988;2023-03-02T12:54:28;26.45;;;13.70;;
55146;SDS011;41039;49.830;23.988;2023-03-02T12:59:37;19.42;;;12.13;;
55146;SDS011;41039;49.830;23.988;2023-03-02T13:02:04;16.85;;;12.80;;
55146;SDS011;41039;49.830;23.988;2023-03-02T13:04:29;17.05;;;12.77;;
55146;SDS011;41039;49.830;23.988;2023-03-02T13:06:55;18.67;;;12.98;;
55146;SDS011;41039;49.830;23.988;2023-03-02T13:09:20;19.65;;;12.55;;
55146;SDS011;41039;49.830;23.988;2023-03-02T13:11:46;24.45;;;13.18;;
55146;SDS011;41039;49.830;23.988;2023-03-02T13:14:17;23.25;;;12.57;;
55146;SDS011;41039;49.830;23.988;2023-03-02T13:16:51;21.42;;;13.00;;
55146;SDS011;41039;49.830;23.988;2023-03-02T13:19:17;17.00;;;11.48;;
55146;SDS011;41039;49.830;23.988;2023-03-02T13:21:43;25.77;;;12.90;;
55146;SDS011;41039;49.830;23.988;2023-03-02T13:26:56;23.50;;;14.00;;
55146;SDS011;41039;49.830;23.988;2023-03-02T13:29:24;27.50;;;13.00;;
55146;SDS011;41039;49.830;23.988;2023-03-02T13:31:50;18.85;;;13.02;;
55146;SDS011;41039;49.830;23.988;2023-03-02T13:34:19;21.53;;;13.10;;
55146;SDS011;41039;49.830;23.988;2023-03-02T13:36:44;27.70;;;14.38;;
55146;SDS011;41039;49.830;23.988;2023-03-02T13:39:26;19.08;;;12.77;;
55146;SDS011;41039;49.830;23.988;2023-03-02T13:41:53;21.60;;;12.40;;
55146;SDS011;41039;49.830;23.988;2023-03-02T13:44:20;24.50;;;13.25;;
55146;SDS011;41039;49.830;23.988;2023-03-02T13:46:47;38.47;;;15.30;;
55146;SDS011;41039;49.830;23.988;2023-03-02T13:49:12;31.80;;;16.45;;
55146;SDS011;41039;49.830;23.988;2023-03-02T13:51:41;24.92;;;15.15;;
55146;SDS011;41039;49.830;23.988;2023-03-02T13:54:19;21.92;;;13.88;;
55146;SDS011;41039;49.830;23.988;2023-03-02T13:56:45;27.35;;;15.55;;
55146;SDS011;41039;49.830;23.988;2023-03-02T13:59:14;37.63;;;15.43;;
55146;SDS011;41039;49.830;23.988;2023-03-02T14:01:40;32.08;;;15.10;;
55146;SDS011;41039;49.830;23.988;2023-03-02T14:04:05;39.70;;;17.95;;
55146;SDS011;41039;49.830;23.988;2023-03-02T14:06:31;24.80;;;15.27;;
55146;SDS011;41039;49.830;23.988;2023-03-02T14:08:56;32.95;;;16.63;;
55146;SDS011;41039;49.830;23.988;2023-03-02T14:11:21;27.23;;;15.38;;
55146;SDS011;41039;49.830;23.988;2023-03-02T14:13:55;36.08;;;16.13;;
55146;SDS011;41039;49.830;23.988;2023-03-02T14:16:20;20.73;;;13.18;;
55146;SDS011;41039;49.830;23.988;2023-03-02T14:18:46;23.42;;;14.27;;
55146;SDS011;41039;49.830;23.988;2023-03-02T14:21:16;29.15;;;16.13;;
55146;SDS011;41039;49.830;23.988;2023-03-02T14:23:42;37.55;;;15.10;;
55146;SDS011;41039;49.830;23.988;2023-03-02T14:28:51;25.65;;;15.80;;
55146;SDS011;41039;49.830;23.988;2023-03-02T14:31:16;34.05;;;15.63;;
55146;SDS011;41039;49.830;23.988;2023-03-02T14:33:43;31.77;;;13.93;;
55146;SDS011;41039;49.830;23.988;2023-03-02T14:36:08;23.48;;;13.77;;
55146;SDS011;41039;49.830;23.988;2023-03-02T14:38:35;39.95;;;16.10;;
55146;SDS011;41039;49.830;23.988;2023-03-02T14:41:01;26.35;;;15.13;;
55146;SDS011;41039;49.830;23.988;2023-03-02T14:43:26;24.17;;;15.48;;
55146;SDS011;41039;49.830;23.988;2023-03-02T14:45:51;30.70;;;14.75;;
55146;SDS011;41039;49.830;23.988;2023-03-02T14:48:17;29.42;;;13.27;;
55146;SDS011;41039;49.830;23.988;2023-03-02T14:50:43;31.70;;;14.82;;
55146;SDS011;41039;49.830;23.988;2023-03-02T14:53:11;39.75;;;16.02;;
55146;SDS011;41039;49.830;23.988;2023-03-02T14:55:39;26.27;;;13.75;;
55146;SDS011;41039;49.830;23.988;2023-03-02T14:58:10;25.17;;;13.90;;
55146;SDS011;41039;49.830;23.988;2023-03-02T15:00:36;30.92;;;14.95;;
55146;SDS011;41039;49.830;23.988;2023-03-02T15:03:02;30.67;;;13.60;;
55146;SDS011;41039;49.830;23.988;2023-03-02T15:05:27;29.33;;;13.65;;
55146;SDS011;41039;49.830;23.988;2023-03-02T15:07:52;31.35;;;13.27;;